Time;durP1;ratioP1;P1;durP2;ratioP2;P2;SDS_P1;SDS_P2;PMS_P1;PMS_P2;Temp;Humidity;BMP_temperature;BMP_pressure;BME280_temperature;BME280_humidity;BME280_pressure;Samples;Min_cycle;Max_cycle;Signal;HPM_P1;HPM_P2
2021/08/23 00:01:23;;;;;;;2.67;2.47;;;18.50;99.90;;;;;;4911757;29;20936;-72
2021/08/23 00:03:48;;;;;;;2.50;2.30;;;18.50;99.90;;;;;;4929909;29;20978;-72
2021/08/23 00:06:14;;;;;;;3.40;2.47;;;18.50;99.90;;;;;;4896648;29;20520;-72
2021/08/23 00:08:39;;;;;;;2.50;2.30;;;18.50;99.90;;;;;;4881136;29;20515;-72
2021/08/23 00:11:05;;;;;;;2.60;2.40;;;18.50;99.90;;;;;;4885015;29;20399;-72
2021/08/23 00:13:31;;;;;;;2.43;2.30;;;18.50;99.90;;;;;;4895176;29;20426;-72
2021/08/23 00:15:56;;;;;;;3.80;2.53;;;18.50;99.90;;;;;;4897205;29;20392;-72
2021/08/23 00:18:22;;;;;;;2.60;2.40;;;18.50;99.90;;;;;;4896239;29;20403;-72
2021/08/23 00:20:57;;;;;;;2.47;2.28;;;18.50;99.90;;;;;;4926324;28;20406;-72
2021/08/23 00:23:25;;;;;;;2.45;2.25;;;18.50;99.90;;;;;;4899525;29;20806;-72
2021/08/23 00:25:52;;;;;;;2.90;2.60;;;18.50;99.90;;;;;;4916309;29;20401;-72
2021/08/23 00:28:17;;;;;;;2.33;2.22;;;18.50;99.90;;;;;;4897022;29;20834;-72
2021/08/23 00:30:43;;;;;;;2.40;2.20;;;18.50;99.90;;;;;;4880450;29;20419;-73
2021/08/23 00:33:09;;;;;;;2.28;2.08;;;18.50;99.90;;;;;;4896667;29;20857;-72
2021/08/23 00:35:34;;;;;;;1.87;1.77;;;18.60;99.90;;;;;;4880745;29;20914;-72
2021/08/23 00:38:00;;;;;;;2.08;1.98;;;18.60;99.90;;;;;;4880194;29;20913;-72
2021/08/23 00:40:26;;;;;;;2.00;1.90;;;18.60;99.90;;;;;;4897336;29;20848;-72
2021/08/23 00:42:52;;;;;;;2.22;2.08;;;18.60;99.90;;;;;;4896081;29;20464;-73
2021/08/23 00:45:21;;;;;;;2.23;2.03;;;18.70;99.90;;;;;;4895980;29;20409;-73
2021/08/23 00:47:47;;;;;;;2.03;1.92;;;18.70;99.90;;;;;;4895978;29;20932;-72
2021/08/23 00:50:13;;;;;;;2.40;2.20;;;18.70;99.90;;;;;;4880475;29;20411;-72
2021/08/23 00:52:38;;;;;;;2.10;2.00;;;18.80;99.90;;;;;;4907085;29;20507;-72
2021/08/23 00:55:05;;;;;;;2.10;2.00;;;18.70;99.90;;;;;;4885798;29;20407;-73
2021/08/23 00:57:30;;;;;;;2.55;2.35;;;18.70;99.90;;;;;;4919906;29;20411;-73
2021/08/23 00:59:56;;;;;;;2.85;2.55;;;18.70;99.90;;;;;;4891862;29;20888;-73
2021/08/23 01:02:34;;;;;;;2.07;1.90;;;18.60;99.90;;;;;;4898250;29;20453;-72
2021/08/23 01:05:09;;;;;;;2.00;1.90;;;18.60;99.90;;;;;;4930224;29;20421;-73
2021/08/23 01:07:41;;;;;;;2.90;1.80;;;18.50;99.90;;;;;;4930498;29;20402;-73
2021/08/23 01:10:09;;;;;;;1.52;1.42;;;18.40;99.90;;;;;;4914911;29;20402;-73
2021/08/23 01:12:35;;;;;;;1.40;1.30;;;18.40;99.90;;;;;;4913394;29;20438;-73
2021/08/23 01:15:01;;;;;;;1.17;1.10;;;18.40;99.90;;;;;;4914971;29;20485;-73
2021/08/23 01:17:27;;;;;;;0.90;0.90;;;18.40;99.90;;;;;;4913820;29;20554;-73
2021/08/23 01:19:54;;;;;;;2.03;1.33;;;18.40;99.90;;;;;;4930845;29;20481;-73
2021/08/23 01:22:20;;;;;;;1.58;1.48;;;18.30;99.90;;;;;;4898803;29;20413;-73
2021/08/23 01:24:45;;;;;;;2.08;1.40;;;18.30;99.90;;;;;;4894504;29;20394;-73
2021/08/23 01:27:11;;;;;;;1.47;1.37;;;18.20;99.90;;;;;;4897957;29;22034;-72
2021/08/23 01:29:55;;;;;;;5.63;1.20;;;18.20;99.90;;;;;;4901435;29;20496;-72
2021/08/23 01:32:22;;;;;;;1.30;1.20;;;18.10;99.90;;;;;;4894376;29;20399;-73
2021/08/23 01:34:49;;;;;;;0.88;0.88;;;18.10;99.90;;;;;;4880022;29;20400;-73
2021/08/23 01:37:17;;;;;;;0.93;0.93;;;18.00;99.90;;;;;;4880189;29;20486;-72
2021/08/23 01:39:43;;;;;;;1.25;1.15;;;17.90;99.90;;;;;;4879967;29;20766;-73
2021/08/23 01:42:09;;;;;;;0.90;0.90;;;18.00;99.90;;;;;;4909748;29;20402;-73
2021/08/23 01:44:34;;;;;;;1.00;1.00;;;17.90;99.90;;;;;;4914574;29;20400;-73
2021/08/23 01:47:00;;;;;;;1.00;1.00;;;17.90;99.90;;;;;;4894164;29;20415;-73
2021/08/23 01:49:26;;;;;;;1.20;1.20;;;17.90;99.90;;;;;;4895842;29;20391;-73
2021/08/23 01:51:52;;;;;;;1.30;1.20;;;17.80;99.90;;;;;;4912476;29;20395;-73
2021/08/23 01:54:18;;;;;;;0.98;0.98;;;17.80;99.90;;;;;;4899450;29;20426;-73
2021/08/23 01:56:44;;;;;;;1.20;1.15;;;17.80;99.90;;;;;;4922028;29;20412;-73
2021/08/23 01:59:09;;;;;;;0.97;0.97;;;17.70;99.90;;;;;;4913491;29;20494;-73
2021/08/23 02:01:35;;;;;;;0.88;0.88;;;17.70;99.90;;;;;;4912422;29;20422;-74
2021/08/23 02:04:01;;;;;;;0.90;0.90;;;17.70;99.90;;;;;;4914175;29;21012;-73
2021/08/23 02:06:26;;;;;;;0.85;0.85;;;17.70;99.90;;;;;;4892141;29;20404;-73
2021/08/23 02:08:52;;;;;;;0.90;0.90;;;17.60;99.90;;;;;;4894201;29;20411;-74
2021/08/23 02:11:18;;;;;;;0.85;0.85;;;17.70;99.90;;;;;;4905753;29;20524;-73
2021/08/23 02:13:44;;;;;;;1.70;1.00;;;17.60;99.90;;;;;;4897764;29;20410;-73
2021/08/23 02:16:10;;;;;;;0.83;0.83;;;17.60;99.90;;;;;;4946196;29;21001;-73
2021/08/23 02:18:35;;;;;;;0.97;0.97;;;17.50;99.90;;;;;;4897380;29;20953;-73
2021/08/23 02:21:02;;;;;;;1.30;0.88;;;17.50;99.90;;;;;;4898033;29;20406;-73
2021/08/23 02:23:27;;;;;;;1.05;1.00;;;17.50;99.90;;;;;;4937094;29;20475;-72
2021/08/23 02:25:56;;;;;;;1.00;1.00;;;17.50;99.90;;;;;;4893859;29;20404;-73
2021/08/23 02:28:22;;;;;;;1.20;1.10;;;17.40;99.90;;;;;;4913156;29;20414;-73
2021/08/23 02:30:48;;;;;;;1.00;1.00;;;17.50;99.90;;;;;;4913302;29;21015;-73
2021/08/23 02:33:14;;;;;;;1.70;1.40;;;17.40;99.90;;;;;;4896979;29;20402;-73
2021/08/23 02:35:39;;;;;;;1.20;1.10;;;17.40;99.90;;;;;;4928224;29;20406;-73
2021/08/23 02:38:07;;;;;;;1.27;1.17;;;17.40;99.90;;;;;;4899256;29;21095;-73
2021/08/23 02:40:33;;;;;;;1.50;1.40;;;17.50;99.90;;;;;;4881801;29;20414;-73
2021/08/23 02:42:59;;;;;;;1.15;1.13;;;17.40;99.90;;;;;;4879329;29;20466;-73
2021/08/23 02:45:25;;;;;;;1.40;1.30;;;17.40;99.90;;;;;;4909486;29;20470;-73
2021/08/23 02:47:50;;;;;;;1.40;1.30;;;17.40;99.90;;;;;;4926251;29;20407;-73
2021/08/23 02:50:16;;;;;;;1.20;1.17;;;17.40;99.90;;;;;;4927619;29;20407;-73
2021/08/23 02:52:42;;;;;;;1.47;1.37;;;17.40;99.90;;;;;;4909554;29;20838;-73
2021/08/23 02:55:08;;;;;;;1.73;1.23;;;17.40;99.90;;;;;;4928945;29;20392;-73
2021/08/23 02:57:34;;;;;;;1.20;1.10;;;17.40;99.90;;;;;;4890304;29;20402;-74
2021/08/23 02:59:59;;;;;;;1.03;1.00;;;17.30;99.90;;;;;;4897897;29;20398;-73
2021/08/23 03:02:25;;;;;;;1.00;1.00;;;17.40;99.90;;;;;;4913841;29;20464;-73
2021/08/23 03:04:51;;;;;;;1.20;1.10;;;17.40;99.90;;;;;;4911023;29;20830;-73
2021/08/23 03:07:16;;;;;;;1.13;1.13;;;17.40;99.90;;;;;;4893740;29;20408;-73
2021/08/23 03:09:42;;;;;;;1.40;1.30;;;17.40;99.90;;;;;;4879201;29;20404;-73
2021/08/23 03:12:08;;;;;;;1.10;1.00;;;17.40;99.90;;;;;;4892602;29;20401;-73
2021/08/23 03:14:33;;;;;;;0.93;0.93;;;17.40;99.90;;;;;;4910471;29;20420;-73
2021/08/23 03:16:59;;;;;;;1.10;1.10;;;17.30;99.90;;;;;;4893708;29;20454;-73
2021/08/23 03:19:25;;;;;;;0.87;0.87;;;17.30;99.90;;;;;;4879100;29;20454;-73
2021/08/23 03:21:50;;;;;;;1.00;1.00;;;17.30;99.90;;;;;;4910580;29;20392;-73
2021/08/23 03:24:16;;;;;;;1.10;1.10;;;17.40;99.90;;;;;;4895250;29;20400;-73
2021/08/23 03:26:42;;;;;;;1.25;1.15;;;17.40;99.90;;;;;;4894276;29;20419;-73
2021/08/23 03:29:09;;;;;;;0.93;0.93;;;17.40;99.90;;;;;;4888388;29;20398;-73
2021/08/23 03:31:35;;;;;;;1.20;1.10;;;17.30;99.90;;;;;;4897719;29;20928;-73
2021/08/23 03:34:00;;;;;;;1.00;1.00;;;17.30;99.90;;;;;;4897120;29;20505;-73
2021/08/23 03:36:26;;;;;;;1.35;1.00;;;17.30;99.90;;;;;;4897023;29;20436;-73
2021/08/23 03:38:52;;;;;;;0.90;0.90;;;17.30;99.90;;;;;;4897325;29;20402;-73
2021/08/23 03:41:17;;;;;;;0.98;0.98;;;17.20;99.90;;;;;;4912174;29;20405;-74
2021/08/23 03:43:43;;;;;;;0.90;0.90;;;17.30;99.90;;;;;;4912073;29;20403;-73
2021/08/23 03:46:09;;;;;;;0.90;0.90;;;17.30;99.90;;;;;;4893277;29;20404;-73
2021/08/23 03:48:34;;;;;;;0.90;0.90;;;17.30;99.90;;;;;;4893741;29;21132;-73
2021/08/23 03:51:00;;;;;;;0.90;0.90;;;17.40;99.90;;;;;;4877965;29;20408;-73
2021/08/23 03:53:26;;;;;;;1.00;1.00;;;17.40;99.90;;;;;;4893510;29;20423;-73
2021/08/23 03:55:51;;;;;;;1.10;1.00;;;17.40;99.90;;;;;;4898219;29;20403;-73
2021/08/23 03:58:17;;;;;;;1.25;1.20;;;17.40;99.90;;;;;;4931873;29;20443;-73
2021/08/23 04:00:43;;;;;;;1.05;0.95;;;17.40;99.90;;;;;;4881167;29;20478;-73
2021/08/23 04:03:09;;;;;;;0.90;0.90;;;17.40;99.90;;;;;;4881888;29;20403;-73
2021/08/23 04:05:35;;;;;;;1.90;0.95;;;17.40;99.90;;;;;;4903931;29;20398;-73
2021/08/23 04:08:01;;;;;;;1.13;1.13;;;17.40;99.90;;;;;;4915037;29;20951;-73
2021/08/23 04:10:26;;;;;;;1.58;1.50;;;17.40;99.90;;;;;;4915268;29;20468;-73
2021/08/23 04:12:52;;;;;;;1.00;1.00;;;17.40;99.90;;;;;;4920704;29;20424;-73
2021/08/23 04:15:18;;;;;;;0.90;0.90;;;17.30;99.90;;;;;;4896590;29;20410;-73
2021/08/23 04:17:43;;;;;;;0.90;0.90;;;17.40;99.90;;;;;;4929258;29;20404;-73
2021/08/23 04:20:12;;;;;;;0.70;0.70;;;17.40;99.90;;;;;;4895917;29;20474;-73
2021/08/23 04:22:38;;;;;;;1.10;1.10;;;17.40;99.90;;;;;;4940552;28;20394;-73
2021/08/23 04:25:04;;;;;;;0.93;0.93;;;17.50;99.90;;;;;;4893391;29;20406;-72
2021/08/23 04:27:29;;;;;;;0.88;0.88;;;17.50;99.90;;;;;;4896593;29;20403;-73
2021/08/23 04:29:55;;;;;;;1.10;1.10;;;17.50;99.90;;;;;;4916633;29;20835;-72
2021/08/23 04:32:20;;;;;;;0.82;0.82;;;17.50;99.90;;;;;;4898629;29;20432;-73
2021/08/23 04:34:46;;;;;;;1.60;1.07;;;17.50;99.90;;;;;;4900155;29;20469;-72
2021/08/23 04:37:12;;;;;;;1.17;1.10;;;17.40;99.90;;;;;;4895385;29;20402;-72
2021/08/23 04:39:38;;;;;;;1.10;1.07;;;17.50;99.90;;;;;;4895302;29;20490;-73
2021/08/23 04:42:03;;;;;;;1.10;1.10;;;17.50;99.90;;;;;;4910630;28;20398;-73
2021/08/23 04:44:29;;;;;;;0.90;0.90;;;17.50;99.90;;;;;;4905374;29;20460;-72
2021/08/23 04:46:55;;;;;;;1.03;0.97;;;17.50;99.90;;;;;;4911734;29;20438;-72
2021/08/23 04:49:20;;;;;;;1.40;1.30;;;17.50;99.90;;;;;;4912276;29;20404;-72
2021/08/23 04:51:46;;;;;;;6.53;1.30;;;17.50;99.90;;;;;;4899468;29;20401;-72
2021/08/23 04:54:12;;;;;;;1.20;1.10;;;17.50;99.90;;;;;;4901667;29;20423;-72
2021/08/23 04:56:37;;;;;;;1.10;1.10;;;17.50;99.90;;;;;;4895971;29;20418;-72
2021/08/23 04:59:03;;;;;;;1.10;1.10;;;17.50;99.90;;;;;;4895967;29;20455;-72
2021/08/23 05:01:29;;;;;;;1.10;1.10;;;17.50;99.90;;;;;;4887748;29;21043;-72
2021/08/23 05:03:55;;;;;;;0.97;0.97;;;17.50;99.90;;;;;;4899364;29;20485;-72
2021/08/23 05:06:21;;;;;;;1.20;1.10;;;17.50;99.90;;;;;;4916460;29;20472;-72
2021/08/23 05:08:47;;;;;;;0.93;0.93;;;17.50;99.90;;;;;;4912106;29;20403;-72
2021/08/23 05:11:12;;;;;;;1.30;1.20;;;17.50;99.90;;;;;;4888118;29;20420;-72
2021/08/23 05:13:38;;;;;;;1.20;1.10;;;17.60;99.90;;;;;;4896392;29;20470;-72
2021/08/23 05:16:04;;;;;;;0.90;0.90;;;17.60;99.90;;;;;;4910473;29;20581;-73
2021/08/23 05:18:30;;;;;;;1.20;1.10;;;17.70;99.90;;;;;;4917022;29;20411;-72
2021/08/23 05:20:58;;;;;;;1.43;1.10;;;17.70;99.90;;;;;;4902149;29;20457;-72
2021/08/23 05:23:23;;;;;;;0.85;0.85;;;17.70;99.90;;;;;;4917315;28;20423;-72
2021/08/23 05:25:49;;;;;;;1.02;1.02;;;17.80;99.90;;;;;;4894419;29;20501;-72
2021/08/23 05:28:15;;;;;;;0.80;0.80;;;17.80;99.90;;;;;;4903132;29;20400;-72
2021/08/23 05:30:40;;;;;;;1.20;1.20;;;17.80;99.90;;;;;;4896825;29;20405;-72
2021/08/23 05:33:06;;;;;;;1.00;1.00;;;17.90;99.90;;;;;;4928530;29;20406;-72
2021/08/23 05:35:32;;;;;;;1.10;1.10;;;17.90;99.90;;;;;;4913674;29;20401;-72
2021/08/23 05:37:57;;;;;;;1.08;1.08;;;17.90;99.90;;;;;;4894093;29;20419;-73
2021/08/23 05:40:24;;;;;;;0.90;0.90;;;17.90;99.90;;;;;;4905747;29;20404;-72
2021/08/23 05:42:50;;;;;;;0.98;0.98;;;17.90;99.90;;;;;;4920035;29;20415;-72
2021/08/23 05:45:17;;;;;;;0.90;0.90;;;17.90;99.90;;;;;;4911993;29;20402;-73
2021/08/23 05:47:43;;;;;;;1.13;1.13;;;17.90;99.90;;;;;;4928866;29;20429;-72
2021/08/23 05:50:09;;;;;;;1.25;1.15;;;17.90;99.90;;;;;;4910644;29;20416;-73
2021/08/23 05:52:34;;;;;;;1.27;1.17;;;17.90;99.90;;;;;;4884691;29;20500;-72
2021/08/23 05:55:00;;;;;;;1.20;1.20;;;17.90;99.90;;;;;;4889192;29;21013;-72
2021/08/23 05:57:27;;;;;;;1.30;1.20;;;18.00;99.90;;;;;;4910540;29;20399;-73
2021/08/23 05:59:53;;;;;;;1.20;1.10;;;18.00;99.90;;;;;;4911642;29;20396;-74
2021/08/23 06:02:19;;;;;;;1.73;1.33;;;18.00;99.90;;;;;;4911005;29;21211;-72
2021/08/23 06:04:45;;;;;;;1.40;1.30;;;18.10;99.90;;;;;;4926986;29;20402;-72
2021/08/23 06:07:10;;;;;;;1.75;1.38;;;18.20;99.90;;;;;;4927486;29;20457;-73
2021/08/23 06:09:36;;;;;;;1.20;1.20;;;18.20;99.90;;;;;;4898598;29;21001;-73
2021/08/23 06:12:02;;;;;;;1.27;1.20;;;18.10;99.90;;;;;;4921684;29;20408;-73
2021/08/23 06:14:28;;;;;;;1.60;1.50;;;18.20;99.90;;;;;;4896687;29;20879;-73
2021/08/23 06:16:54;;;;;;;1.20;1.20;;;18.20;99.90;;;;;;4894229;29;20507;-73
2021/08/23 06:19:19;;;;;;;1.92;1.70;;;18.20;99.90;;;;;;4879543;29;20409;-73
2021/08/23 06:21:45;;;;;;;1.50;1.40;;;18.20;99.90;;;;;;4884241;29;20406;-73
2021/08/23 06:24:11;;;;;;;1.87;1.77;;;18.20;99.90;;;;;;4890475;29;20408;-72
2021/08/23 06:26:37;;;;;;;1.70;1.60;;;18.20;99.90;;;;;;4929339;29;20537;-72
2021/08/23 06:29:03;;;;;;;1.52;1.42;;;18.10;99.90;;;;;;4920420;29;20424;-72
2021/08/23 06:31:28;;;;;;;1.50;1.40;;;18.10;99.90;;;;;;4878300;29;20834;-73
2021/08/23 06:33:54;;;;;;;1.30;1.20;;;18.00;99.90;;;;;;4911044;29;20446;-72
2021/08/23 06:36:20;;;;;;;1.00;1.00;;;18.00;99.90;;;;;;4894564;29;20411;-72
2021/08/23 06:38:45;;;;;;;0.90;0.90;;;18.00;99.90;;;;;;4909745;29;20461;-74
2021/08/23 06:41:16;;;;;;;0.70;0.70;;;17.90;99.90;;;;;;4899722;29;20404;-73
2021/08/23 06:43:41;;;;;;;0.80;0.80;;;17.90;99.90;;;;;;4911479;29;20421;-73
2021/08/23 06:46:07;;;;;;;0.70;0.70;;;17.80;99.90;;;;;;4940161;28;20423;-73
2021/08/23 06:48:33;;;;;;;0.85;0.85;;;17.80;99.90;;;;;;4906483;29;20506;-73
2021/08/23 06:50:59;;;;;;;0.63;0.63;;;17.80;99.90;;;;;;4929934;29;20450;-74
2021/08/23 06:53:25;;;;;;;0.60;0.60;;;17.90;99.90;;;;;;4929687;29;20995;-72
2021/08/23 06:55:51;;;;;;;0.63;0.63;;;17.80;99.90;;;;;;4929293;29;20807;-72
2021/08/23 06:58:16;;;;;;;0.60;0.60;;;17.70;99.90;;;;;;4913161;29;20402;-72
2021/08/23 07:00:42;;;;;;;1.15;0.60;;;17.60;99.90;;;;;;4945746;29;20437;-73
2021/08/23 07:03:07;;;;;;;0.70;0.70;;;17.60;99.90;;;;;;4929384;29;20393;-73
2021/08/23 07:05:33;;;;;;;0.73;0.73;;;17.60;99.90;;;;;;4897427;29;20400;-73
2021/08/23 07:07:59;;;;;;;0.70;0.70;;;17.50;99.90;;;;;;4898118;29;20422;-73
2021/08/23 07:10:25;;;;;;;0.60;0.60;;;17.50;99.90;;;;;;4913704;29;21081;-73
2021/08/23 07:12:51;;;;;;;0.60;0.60;;;17.50;99.90;;;;;;4917473;29;20420;-73
2021/08/23 07:15:17;;;;;;;0.80;0.80;;;17.40;99.90;;;;;;4917701;29;20470;-73
2021/08/23 07:17:43;;;;;;;0.70;0.70;;;17.40;99.90;;;;;;4879034;29;20906;-73
2021/08/23 07:20:09;;;;;;;0.70;0.70;;;17.40;99.90;;;;;;4895732;29;20770;-73
2021/08/23 07:22:34;;;;;;;0.73;0.73;;;17.40;99.90;;;;;;4904439;29;20414;-73
2021/08/23 07:25:01;;;;;;;0.70;0.70;;;17.30;99.90;;;;;;4921046;29;20397;-72
2021/08/23 07:27:27;;;;;;;0.60;0.60;;;17.30;99.90;;;;;;4928977;29;20402;-72
2021/08/23 07:29:52;;;;;;;0.60;0.60;;;17.30;99.90;;;;;;4905874;29;20414;-72
2021/08/23 07:32:18;;;;;;;5.95;0.80;;;17.20;99.90;;;;;;4911576;29;20778;-72
2021/08/23 07:34:44;;;;;;;0.87;0.87;;;17.20;99.90;;;;;;4914559;29;20419;-72
2021/08/23 07:37:14;;;;;;;0.75;0.75;;;17.20;99.90;;;;;;4912443;29;20407;-72
2021/08/23 07:39:41;;;;;;;0.70;0.70;;;17.20;99.90;;;;;;4913782;29;20395;-73
2021/08/23 07:42:07;;;;;;;0.70;0.70;;;17.20;99.90;;;;;;4913547;29;21089;-72
2021/08/23 07:44:33;;;;;;;0.60;0.60;;;17.20;99.90;;;;;;4930429;29;20421;-72
2021/08/23 07:46:58;;;;;;;0.90;0.90;;;17.20;99.90;;;;;;4900212;29;20405;-73
2021/08/23 07:49:24;;;;;;;0.88;0.88;;;17.10;99.90;;;;;;4888922;29;21336;-73
2021/08/23 07:51:49;;;;;;;0.60;0.60;;;17.10;99.90;;;;;;4899506;29;20428;-73
2021/08/23 07:54:17;;;;;;;0.60;0.60;;;17.10;99.90;;;;;;4912898;29;20476;-72
2021/08/23 07:56:43;;;;;;;0.60;0.60;;;17.10;99.90;;;;;;4900626;29;20398;-73
2021/08/23 07:59:09;;;;;;;0.70;0.70;;;17.10;99.90;;;;;;4915796;29;20485;-73
2021/08/23 08:01:34;;;;;;;0.83;0.80;;;17.20;99.90;;;;;;4915430;29;20402;-72
2021/08/23 08:04:00;;;;;;;0.70;0.70;;;17.20;99.90;;;;;;4931674;29;20437;-73
2021/08/23 08:06:25;;;;;;;0.52;0.52;;;17.10;99.90;;;;;;4900511;29;20406;-73
2021/08/23 08:08:51;;;;;;;0.70;0.70;;;17.10;99.90;;;;;;4914144;29;20912;-72
2021/08/23 08:11:17;;;;;;;0.70;0.70;;;17.10;99.90;;;;;;4915300;29;21007;-73
2021/08/23 08:13:42;;;;;;;9.48;0.93;;;17.10;99.90;;;;;;4909097;29;20422;-72
2021/08/23 08:16:08;;;;;;;0.53;0.53;;;17.10;99.90;;;;;;4899971;29;20464;-72
2021/08/23 08:18:34;;;;;;;0.57;0.57;;;17.10;99.90;;;;;;4916181;29;20445;-73
2021/08/23 08:21:00;;;;;;;0.67;0.67;;;17.10;99.90;;;;;;4917096;29;20402;-73
2021/08/23 08:23:26;;;;;;;0.50;0.50;;;17.10;99.90;;;;;;4898610;29;20411;-73
2021/08/23 08:25:52;;;;;;;0.50;0.50;;;17.10;99.90;;;;;;4906876;29;20952;-72
2021/08/23 08:28:17;;;;;;;0.50;0.50;;;17.00;99.90;;;;;;4899679;29;20540;-72
2021/08/23 08:30:43;;;;;;;0.60;0.60;;;17.00;99.90;;;;;;4914407;29;20460;-72
2021/08/23 08:33:09;;;;;;;0.53;0.53;;;16.90;99.90;;;;;;4915168;29;20486;-73
2021/08/23 08:35:35;;;;;;;0.40;0.40;;;16.90;99.90;;;;;;4948662;29;20971;-73
2021/08/23 08:38:01;;;;;;;0.40;0.40;;;16.90;99.90;;;;;;4900032;29;20402;-71
2021/08/23 08:40:26;;;;;;;0.60;0.60;;;16.80;99.90;;;;;;4930363;29;20400;-72
2021/08/23 08:42:52;;;;;;;0.53;0.53;;;16.80;99.90;;;;;;4899667;29;20964;-72
2021/08/23 08:45:18;;;;;;;0.50;0.50;;;16.80;99.90;;;;;;4914943;29;20530;-72
2021/08/23 08:47:44;;;;;;;0.70;0.60;;;16.80;99.90;;;;;;4915888;29;20819;-72
2021/08/23 08:50:12;;;;;;;0.50;0.50;;;16.80;99.90;;;;;;4911927;29;20414;-72
2021/08/23 08:52:39;;;;;;;0.50;0.50;;;16.80;99.90;;;;;;4906744;29;20860;-73
2021/08/23 08:55:05;;;;;;;0.60;0.60;;;16.80;99.90;;;;;;4907044;29;20422;-72
2021/08/23 08:57:31;;;;;;;0.60;0.60;;;16.80;99.90;;;;;;4911175;29;20410;-72
2021/08/23 08:59:57;;;;;;;0.70;0.70;;;16.80;99.90;;;;;;4896724;29;20906;-72
2021/08/23 09:02:23;;;;;;;0.57;0.57;;;16.80;99.90;;;;;;4926929;29;20402;-73
2021/08/23 09:04:48;;;;;;;0.70;0.70;;;16.70;99.90;;;;;;4911492;29;20418;-72
2021/08/23 09:07:14;;;;;;;4.70;0.70;;;16.70;99.90;;;;;;4880759;29;20463;-72
2021/08/23 09:09:40;;;;;;;0.63;0.63;;;16.70;99.90;;;;;;4927619;29;20410;-71
2021/08/23 09:12:10;;;;;;;0.93;0.80;;;16.70;99.90;;;;;;4895951;29;20968;-73
2021/08/23 09:14:55;;;;;;;0.70;0.70;;;16.70;99.90;;;;;;4916067;29;20480;-71
2021/08/23 09:17:22;;;;;;;0.80;0.80;;;16.60;99.90;;;;;;4913743;29;20772;-72
2021/08/23 09:20:03;;;;;;;0.60;0.60;;;16.60;99.90;;;;;;4899780;29;20478;-72
2021/08/23 09:22:28;;;;;;;0.80;0.80;;;16.70;99.90;;;;;;4881814;29;20411;-72
2021/08/23 09:24:54;;;;;;;1.40;0.80;;;16.70;99.90;;;;;;4893168;29;20415;-73
2021/08/23 09:27:20;;;;;;;0.60;0.60;;;16.70;99.90;;;;;;4895535;29;20447;-72
2021/08/23 09:29:59;;;;;;;0.80;0.80;;;16.70;99.90;;;;;;4896443;29;20415;-73
2021/08/23 09:32:29;;;;;;;0.80;0.80;;;16.70;99.90;;;;;;4910840;29;20403;-72
2021/08/23 09:34:55;;;;;;;0.80;0.60;;;16.60;99.90;;;;;;4911066;29;20451;-72
2021/08/23 09:37:25;;;;;;;0.68;0.68;;;16.60;99.90;;;;;;4926495;29;20427;-72
2021/08/23 09:39:51;;;;;;;0.80;0.80;;;16.70;99.90;;;;;;4926615;29;20411;-72
2021/08/23 09:42:20;;;;;;;0.70;0.70;;;16.70;99.90;;;;;;4909760;29;20453;-71
2021/08/23 09:44:46;;;;;;;0.70;0.70;;;16.70;99.90;;;;;;4907790;29;20490;-72
2021/08/23 09:47:12;;;;;;;0.52;0.52;;;16.60;99.90;;;;;;4909898;29;20491;-72
2021/08/23 09:49:39;;;;;;;0.70;0.70;;;16.60;99.90;;;;;;4885252;29;20411;-70
2021/08/23 09:52:05;;;;;;;0.53;0.53;;;16.50;99.90;;;;;;4911457;29;21012;-71
2021/08/23 09:54:31;;;;;;;0.50;0.50;;;16.50;99.90;;;;;;4902730;29;20415;-72
2021/08/23 09:56:57;;;;;;;0.60;0.60;;;16.50;99.90;;;;;;4928287;29;20475;-70
2021/08/23 09:59:24;;;;;;;0.57;0.57;;;16.50;99.90;;;;;;4895928;29;20404;-71
2021/08/23 10:01:55;;;;;;;0.80;0.80;;;16.50;99.90;;;;;;4895444;29;20435;-70
2021/08/23 10:04:20;;;;;;;0.60;0.60;;;16.50;99.90;;;;;;4880270;29;20396;-71
2021/08/23 10:06:48;;;;;;;0.70;0.70;;;16.50;99.90;;;;;;4909821;29;20909;-72
2021/08/23 10:09:23;;;;;;;0.60;0.60;;;16.50;99.90;;;;;;4895897;29;21004;-71
2021/08/23 10:11:52;;;;;;;0.50;0.50;;;16.40;99.90;;;;;;4899326;29;20430;-72
2021/08/23 10:14:18;;;;;;;0.60;0.60;;;16.40;99.90;;;;;;4910578;29;21004;-71
2021/08/23 10:16:43;;;;;;;0.50;0.50;;;16.40;99.90;;;;;;4909388;29;20402;-72
2021/08/23 10:19:09;;;;;;;0.70;0.70;;;16.50;99.90;;;;;;4914953;29;20427;-71
2021/08/23 10:21:36;;;;;;;0.60;0.60;;;16.50;99.90;;;;;;4913316;29;20405;-72
2021/08/23 10:24:02;;;;;;;1.30;0.70;;;16.50;99.90;;;;;;4897637;29;21117;-71
2021/08/23 10:26:37;;;;;;;0.70;0.70;;;16.60;99.90;;;;;;4895148;29;20431;-72
2021/08/23 10:29:07;;;;;;;0.55;0.55;;;16.60;99.90;;;;;;4917893;29;20957;-72
2021/08/23 10:31:36;;;;;;;0.70;0.40;;;16.50;99.90;;;;;;4902798;29;20403;-73
2021/08/23 10:34:12;;;;;;;0.50;0.50;;;16.50;99.90;;;;;;4905247;29;20418;-74
2021/08/23 10:36:38;;;;;;;0.73;0.73;;;16.60;99.90;;;;;;4922477;29;20445;-72
2021/08/23 10:39:04;;;;;;;0.68;0.68;;;16.60;99.90;;;;;;4891159;29;20421;-73
2021/08/23 10:41:30;;;;;;;0.60;0.60;;;16.60;99.90;;;;;;4899799;29;20410;-72
2021/08/23 10:43:57;;;;;;;0.60;0.60;;;16.60;99.90;;;;;;4912792;29;20482;-71
2021/08/23 10:46:34;;;;;;;0.60;0.60;;;16.60;99.90;;;;;;4906676;29;20780;-72
2021/08/23 10:49:11;;;;;;;0.60;0.60;;;16.60;99.90;;;;;;4895166;29;20407;-73
2021/08/23 10:51:41;;;;;;;0.70;0.70;;;16.60;99.90;;;;;;4911746;29;20407;-73
2021/08/23 10:54:27;;;;;;;0.70;0.70;;;16.60;99.90;;;;;;4896552;29;20492;-73
2021/08/23 10:57:01;;;;;;;0.70;0.70;;;16.60;99.90;;;;;;4914180;29;20410;-71
2021/08/23 10:59:46;;;;;;;0.70;0.70;;;16.70;99.90;;;;;;4946469;29;20402;-73
2021/08/23 11:02:14;;;;;;;0.95;0.95;;;16.60;99.90;;;;;;4928736;28;20784;-73
2021/08/23 11:04:42;;;;;;;0.90;0.90;;;16.60;99.90;;;;;;4897891;29;21016;-73
2021/08/23 11:07:08;;;;;;;1.00;1.00;;;16.60;99.90;;;;;;4893727;29;21171;-73
2021/08/23 11:09:38;;;;;;;1.10;1.10;;;16.50;99.90;;;;;;4898023;29;21008;-72
2021/08/23 11:12:14;;;;;;;1.05;1.05;;;16.50;99.90;;;;;;4909177;29;20432;-72
2021/08/23 11:14:51;;;;;;;1.20;1.20;;;16.40;99.90;;;;;;4913768;29;20446;-71
2021/08/23 11:17:30;;;;;;;1.00;1.00;;;16.40;99.90;;;;;;4897909;29;20436;-70
2021/08/23 11:19:57;;;;;;;1.35;1.25;;;16.40;99.90;;;;;;4914094;29;20415;-70
2021/08/23 11:22:22;;;;;;;1.50;1.40;;;16.40;99.90;;;;;;4898549;29;20956;-71
2021/08/23 11:24:49;;;;;;;1.10;1.10;;;16.30;99.90;;;;;;4909548;29;20405;-70
2021/08/23 11:27:15;;;;;;;1.33;1.23;;;16.30;99.90;;;;;;4900724;29;20402;-70
2021/08/23 11:29:53;;;;;;;1.03;1.03;;;16.30;99.90;;;;;;4903368;29;20434;-70
2021/08/23 11:32:23;;;;;;;1.10;1.10;;;16.20;99.90;;;;;;4897534;29;20411;-71
2021/08/23 11:34:50;;;;;;;1.20;1.20;;;16.20;99.90;;;;;;4899478;29;20422;-71
2021/08/23 11:37:16;;;;;;;1.08;1.08;;;16.10;99.90;;;;;;4883654;29;20408;-71
2021/08/23 11:39:42;;;;;;;0.98;0.98;;;16.00;99.90;;;;;;4882506;29;20418;-70
2021/08/23 11:42:07;;;;;;;1.03;1.03;;;16.00;99.90;;;;;;4897119;29;20880;-72
2021/08/23 11:44:34;;;;;;;1.40;0.90;;;16.00;99.90;;;;;;4897325;29;20971;-72
2021/08/23 11:47:02;;;;;;;0.90;0.90;;;15.90;99.90;;;;;;4897046;29;20490;-71
2021/08/23 11:49:35;;;;;;;1.38;0.98;;;15.90;99.90;;;;;;4910659;29;20401;-71
2021/08/23 11:52:15;;;;;;;0.90;0.90;;;15.80;99.90;;;;;;4915401;28;21132;-71
2021/08/23 11:54:45;;;;;;;1.20;1.10;;;15.80;99.90;;;;;;4910904;29;20409;-71
2021/08/23 11:57:10;;;;;;;1.00;1.00;;;15.80;99.90;;;;;;4900381;29;20402;-71
2021/08/23 11:59:36;;;;;;;1.10;1.10;;;15.80;99.90;;;;;;4932583;29;20428;-71
2021/08/23 12:02:09;;;;;;;1.08;1.08;;;15.80;99.90;;;;;;4899992;29;20401;-70
2021/08/23 12:04:35;;;;;;;1.95;1.20;;;15.80;99.90;;;;;;4916759;29;21069;-71
2021/08/23 12:07:01;;;;;;;1.10;1.00;;;15.80;99.90;;;;;;4900430;29;20412;-71
2021/08/23 12:09:26;;;;;;;2.83;1.08;;;15.70;99.90;;;;;;4901004;29;20403;-71
2021/08/23 12:11:52;;;;;;;1.40;1.10;;;15.80;99.90;;;;;;4923471;29;20489;-71
2021/08/23 12:14:22;;;;;;;1.02;1.02;;;15.80;99.90;;;;;;4915766;29;20423;-70
2021/08/23 12:16:48;;;;;;;1.30;1.30;;;15.80;99.90;;;;;;4888573;29;20479;-70
2021/08/23 12:19:14;;;;;;;1.63;1.17;;;15.70;99.90;;;;;;4911211;29;20487;-71
2021/08/23 12:21:40;;;;;;;0.90;0.90;;;15.60;99.90;;;;;;4887785;29;20464;-71
2021/08/23 12:24:15;;;;;;;1.58;1.13;;;15.70;99.90;;;;;;4897811;29;20399;-71
2021/08/23 12:26:43;;;;;;;1.27;1.27;;;15.70;99.90;;;;;;4896549;29;20413;-70
2021/08/23 12:29:36;;;;;;;1.40;1.30;;;15.80;99.90;;;;;;4938613;29;20409;-70
2021/08/23 12:32:07;;;;;;;1.30;1.20;;;15.80;99.90;;;;;;4901165;29;21032;-70
2021/08/23 12:34:43;;;;;;;1.00;1.00;;;15.80;99.90;;;;;;4885024;29;20811;-69
2021/08/23 12:37:09;;;;;;;1.20;1.20;;;15.70;99.90;;;;;;4933328;29;20402;-73
2021/08/23 12:39:35;;;;;;;1.30;1.27;;;15.80;99.90;;;;;;4915117;29;20405;-72
2021/08/23 12:42:05;;;;;;;1.03;1.03;;;15.70;99.90;;;;;;4896564;29;20396;-72
2021/08/23 12:44:31;;;;;;;1.30;1.20;;;15.60;99.90;;;;;;4914375;29;20431;-72
2021/08/23 12:46:56;;;;;;;1.40;1.30;;;15.60;99.90;;;;;;4880017;29;20494;-72